logo
Search for airport 
image banner adimage banner adimage banner ad
image banner ad

MGPB - Puerto Barrios

Located in Izabal, Guatemala

ICAO - MGPB, IATA - PBR

Data provided by Airmate  

General information

Coordinates: N15°43'51" W88°35'2"
Elevation is 33 feet MSL.
Magnetic variation is -1° East
Rated:
View ratings:
[VIEW]
View others Airports in Izabal

Operational data

Special qualification required
Current time UTC:
Current local time:
Weather at : MHLM - Ramon Villeda Morales ( 77 km )
METAR: MHLM 281900Z 05009KT 2000 FU SCT028 37/24 Q1010 A2983 NOSIG
TAF: TAF MHLM 281640Z 2818/2918 04015KT 3000 FU FEW028 TX39/2820Z TN26/2912Z BECMG 2902/2904 VRB03KT 5000 BECMG 2910/2912 2000
View NOTAMs / SUP AIP / TFR affecting this airport [VIEW]
Communications frequencies: [VIEW]

Runways:

RWY identifierQFULength (ft)Width (ft)SurfaceLDA (ft)
12128°8796100CONC
30308°8796100CONC

Airport contact information

Address: Izabal Guatemala

Satellite view of MGPB